Time;durP1;ratioP1;P1;durP2;ratioP2;P2;SDS_P1;SDS_P2;PMS_P1;PMS_P2;Temp;Humidity;BMP_temperature;BMP_pressure;BME280_temperature;BME280_humidity;BME280_pressure;Samples;Min_cycle;Max_cycle;Signal;HPM_P1;HPM_P2
2024/03/16 00:01:36;;;;;;;0.93;0.60;;;;;;;;;;10370929;28;20049;-72
2024/03/16 00:06:40;;;;;;;0.80;0.50;;;;;;;;;;10350268;28;20103;-73
2024/03/16 00:11:43;;;;;;;1.17;0.68;;;;;;;;;;10379696;28;20037;-72
2024/03/16 00:16:47;;;;;;;4.00;1.00;;;;;;;;;;10372714;28;20049;-72
2024/03/16 00:21:50;;;;;;;2.47;1.17;;;;;;;;;;10369380;28;20446;-73
2024/03/16 00:26:54;;;;;;;1.92;0.70;;;;;;;;;;10372705;28;20053;-72
2024/03/16 00:31:57;;;;;;;1.85;0.70;;;;;;;;;;10353239;28;20144;-72
2024/03/16 00:37:04;;;;;;;2.88;0.85;;;;;;;;;;10369609;28;20601;-72
2024/03/16 00:42:09;;;;;;;2.42;0.75;;;;;;;;;;10380683;28;20882;-72
2024/03/16 00:47:13;;;;;;;3.17;0.70;;;;;;;;;;10384920;28;20124;-72
2024/03/16 00:52:16;;;;;;;0.55;0.52;;;;;;;;;;10364976;28;20056;-72
2024/03/16 00:57:20;;;;;;;1.55;0.55;;;;;;;;;;10364685;28;20044;-72
2024/03/16 01:02:23;;;;;;;2.17;0.88;;;;;;;;;;10341071;28;20048;-72
2024/03/16 01:07:26;;;;;;;1.50;0.75;;;;;;;;;;10369146;28;20041;-72
2024/03/16 01:12:30;;;;;;;1.58;0.57;;;;;;;;;;10383591;28;20052;-72
2024/03/16 01:17:33;;;;;;;1.73;0.70;;;;;;;;;;10379576;28;20537;-72
2024/03/16 01:22:37;;;;;;;2.58;0.77;;;;;;;;;;10359861;28;20053;-72
2024/03/16 01:27:40;;;;;;;1.25;0.60;;;;;;;;;;10383930;28;20580;-72
2024/03/16 01:32:44;;;;;;;1.23;0.63;;;;;;;;;;10375331;28;20136;-72
2024/03/16 01:37:47;;;;;;;1.77;0.63;;;;;;;;;;10380994;28;20052;-72
2024/03/16 01:42:50;;;;;;;2.00;0.77;;;;;;;;;;10368213;28;20050;-73
2024/03/16 01:47:54;;;;;;;1.65;0.90;;;;;;;;;;10383717;28;20041;-72
2024/03/16 01:52:58;;;;;;;1.20;0.75;;;;;;;;;;10365247;28;20052;-73
2024/03/16 01:58:02;;;;;;;2.72;1.20;;;;;;;;;;10368782;28;20042;-72
2024/03/16 02:03:06;;;;;;;5.95;1.27;;;;;;;;;;10377813;28;20046;-72
2024/03/16 02:08:09;;;;;;;2.45;0.70;;;;;;;;;;10368163;28;20462;-73
2024/03/16 02:13:13;;;;;;;2.30;1.00;;;;;;;;;;10362691;28;20046;-73
2024/03/16 02:18:16;;;;;;;3.15;1.13;;;;;;;;;;10346793;28;20774;-72
2024/03/16 02:23:20;;;;;;;1.27;0.68;;;;;;;;;;10360994;28;20041;-72
2024/03/16 02:28:23;;;;;;;2.05;0.77;;;;;;;;;;10363678;28;20442;-72
2024/03/16 02:33:27;;;;;;;1.60;0.63;;;;;;;;;;10354790;28;20046;-72
2024/03/16 02:38:31;;;;;;;0.88;0.50;;;;;;;;;;10363956;28;20766;-72
2024/03/16 02:43:34;;;;;;;1.95;0.68;;;;;;;;;;10357674;28;20057;-72
2024/03/16 02:48:37;;;;;;;1.30;0.50;;;;;;;;;;10359056;28;20050;-72
2024/03/16 02:53:41;;;;;;;1.48;0.93;;;;;;;;;;10352327;28;20499;-72
2024/03/16 02:58:44;;;;;;;1.55;0.70;;;;;;;;;;10368166;28;20064;-72
2024/03/16 03:03:48;;;;;;;2.13;1.00;;;;;;;;;;10363352;28;20053;-72
2024/03/16 03:08:51;;;;;;;1.55;0.60;;;;;;;;;;10375764;28;20084;-72
2024/03/16 03:13:55;;;;;;;2.03;0.40;;;;;;;;;;10361869;28;20049;-72
2024/03/16 03:18:58;;;;;;;1.05;0.50;;;;;;;;;;10366881;28;20068;-73
2024/03/16 03:24:03;;;;;;;1.13;0.65;;;;;;;;;;10360245;28;20054;-72
2024/03/16 03:29:06;;;;;;;0.90;0.55;;;;;;;;;;10374760;28;20990;-72
2024/03/16 03:34:09;;;;;;;1.33;0.57;;;;;;;;;;10367009;28;20147;-72
2024/03/16 03:39:15;;;;;;;2.40;0.80;;;;;;;;;;10366200;28;20121;-72
2024/03/16 03:44:23;;;;;;;1.13;0.68;;;;;;;;;;10365674;28;20065;-72
2024/03/16 03:49:29;;;;;;;2.08;0.60;;;;;;;;;;10373780;28;20136;-72
2024/03/16 03:54:33;;;;;;;0.60;0.40;;;;;;;;;;10373892;28;20124;-72
2024/03/16 03:59:36;;;;;;;2.92;0.93;;;;;;;;;;10360877;28;20041;-72
2024/03/16 04:04:40;;;;;;;1.92;0.82;;;;;;;;;;10388457;28;20045;-72
2024/03/16 04:09:46;;;;;;;2.58;0.70;;;;;;;;;;10377466;28;20060;-72
2024/03/16 04:14:50;;;;;;;1.23;0.60;;;;;;;;;;10382803;28;20068;-72
2024/03/16 04:19:53;;;;;;;1.08;0.55;;;;;;;;;;10358083;28;20049;-72
2024/03/16 04:24:57;;;;;;;1.33;0.65;;;;;;;;;;10333360;28;20057;-72
2024/03/16 04:30:00;;;;;;;1.67;0.60;;;;;;;;;;10408357;28;20498;-72
2024/03/16 04:35:04;;;;;;;1.65;0.60;;;;;;;;;;10365813;28;20052;-72
2024/03/16 04:40:10;;;;;;;2.05;0.82;;;;;;;;;;10362740;28;20402;-72
2024/03/16 04:45:14;;;;;;;;;;;;;;;;;;10376492;28;20115;-72
2024/03/16 04:50:17;;;;;;;1.05;0.50;;;;;;;;;;10388724;28;19929;-72
2024/03/16 04:55:21;;;;;;;2.35;1.08;;;;;;;;;;10400693;28;20048;-72
2024/03/16 05:00:24;;;;;;;2.65;1.00;;;;;;;;;;10368647;28;20052;-72
2024/03/16 05:05:28;;;;;;;3.10;1.00;;;;;;;;;;10385512;28;20053;-72
2024/03/16 05:10:31;;;;;;;2.60;0.80;;;;;;;;;;10380739;28;20422;-72
2024/03/16 05:15:35;;;;;;;2.50;0.80;;;;;;;;;;10367929;28;20042;-72
2024/03/16 05:20:38;;;;;;;1.35;0.90;;;;;;;;;;10451157;22;20149;-72
2024/03/16 05:25:46;;;;;;;3.92;1.08;;;;;;;;;;10446553;28;20139;-72
2024/03/16 05:30:53;;;;;;;1.85;0.70;;;;;;;;;;10448245;28;20048;-72
2024/03/16 05:35:57;;;;;;;2.45;0.73;;;;;;;;;;10478888;28;20056;-72
2024/03/16 05:41:01;;;;;;;1.40;0.80;;;;;;;;;;10446093;28;20159;-72
2024/03/16 05:46:04;;;;;;;1.10;0.60;;;;;;;;;;10458155;28;20048;-72
2024/03/16 05:51:07;;;;;;;0.40;0.40;;;;;;;;;;10478542;28;20044;-72
2024/03/16 05:56:12;;;;;;;0.43;0.43;;;;;;;;;;10472492;28;20047;-72
2024/03/16 06:01:16;;;;;;;2.67;0.70;;;;;;;;;;10492338;28;20044;-72
2024/03/16 06:06:19;;;;;;;0.98;0.70;;;;;;;;;;10469594;28;20715;-72
2024/03/16 06:11:23;;;;;;;2.40;1.30;;;;;;;;;;10464478;28;20052;-72
2024/03/16 06:16:26;;;;;;;3.70;0.90;;;;;;;;;;10479026;28;20160;-72
2024/03/16 06:21:31;;;;;;;2.65;1.33;;;;;;;;;;10476560;28;20579;-73
2024/03/16 06:26:36;;;;;;;1.63;0.98;;;;;;;;;;10492454;28;20036;-72
2024/03/16 06:31:41;;;;;;;1.52;1.00;;;;;;;;;;10473177;28;20489;-72
2024/03/16 06:36:44;;;;;;;1.45;0.68;;;;;;;;;;10480766;28;20564;-72
2024/03/16 06:41:49;;;;;;;2.63;1.20;;;;;;;;;;10475466;28;20050;-72
2024/03/16 06:46:53;;;;;;;1.17;0.70;;;;;;;;;;10480468;28;20433;-72
2024/03/16 06:51:57;;;;;;;1.50;1.00;;;;;;;;;;10487002;28;20046;-72
2024/03/16 06:57:00;;;;;;;3.85;1.38;;;;;;;;;;10480136;28;20050;-72
2024/03/16 07:02:04;;;;;;;1.17;0.88;;;;;;;;;;10482333;28;20402;-72
2024/03/16 07:07:08;;;;;;;3.25;1.45;;;;;;;;;;10489521;28;20612;-72
2024/03/16 07:12:11;;;;;;;2.17;1.05;;;;;;;;;;10485033;28;20036;-72
2024/03/16 07:17:15;;;;;;;1.30;0.70;;;;;;;;;;10470546;28;20505;-72
2024/03/16 07:22:19;;;;;;;1.55;0.85;;;;;;;;;;10488840;28;20055;-72
2024/03/16 07:27:22;;;;;;;0.55;0.50;;;;;;;;;;10483435;28;20048;-72
2024/03/16 07:32:25;;;;;;;2.25;0.80;;;;;;;;;;10491086;28;20550;-72
2024/03/16 07:37:29;;;;;;;2.30;1.15;;;;;;;;;;10485771;28;20036;-72
2024/03/16 07:42:32;;;;;;;1.65;0.60;;;;;;;;;;10467666;28;20052;-73
2024/03/16 07:47:35;;;;;;;0.70;0.70;;;;;;;;;;10467331;28;20048;-72
2024/03/16 07:52:39;;;;;;;2.97;0.63;;;;;;;;;;10487786;28;20040;-72
2024/03/16 07:57:42;;;;;;;1.38;0.73;;;;;;;;;;10489119;28;20056;-73
2024/03/16 08:02:46;;;;;;;0.93;0.50;;;;;;;;;;10490501;28;20493;-72
2024/03/16 08:07:49;;;;;;;1.20;0.68;;;;;;;;;;10488513;28;20040;-72
2024/03/16 08:12:53;;;;;;;0.82;0.60;;;;;;;;;;10490040;28;20052;-72
2024/03/16 08:17:59;;;;;;;1.02;0.50;;;;;;;;;;10482521;28;20036;-72
2024/03/16 08:23:03;;;;;;;0.90;0.43;;;;;;;;;;10477973;28;20062;-75
2024/03/16 08:28:06;;;;;;;0.50;0.50;;;;;;;;;;10487248;28;20054;-75
2024/03/16 08:33:10;;;;;;;0.35;0.35;;;;;;;;;;10488326;28;20043;-75
2024/03/16 08:38:13;;;;;;;2.33;0.70;;;;;;;;;;10472337;28;20044;-74
2024/03/16 08:43:17;;;;;;;0.35;0.30;;;;;;;;;;10472543;28;20044;-75
2024/03/16 08:48:20;;;;;;;0.95;0.52;;;;;;;;;;10477053;28;20142;-75
2024/03/16 08:53:23;;;;;;;0.88;0.57;;;;;;;;;;10473174;28;20073;-74
2024/03/16 08:58:27;;;;;;;2.03;0.60;;;;;;;;;;10470736;28;20206;-75
2024/03/16 09:03:31;;;;;;;0.40;0.40;;;;;;;;;;10471751;28;20052;-74
2024/03/16 09:08:36;;;;;;;0.38;0.30;;;;;;;;;;10463080;28;20033;-74
2024/03/16 09:13:40;;;;;;;1.65;0.50;;;;;;;;;;10478037;28;20040;-75
2024/03/16 09:18:44;;;;;;;0.88;0.38;;;;;;;;;;10496395;28;20044;-75
2024/03/16 09:23:48;;;;;;;1.20;0.43;;;;;;;;;;10490878;28;20097;-75
2024/03/16 09:28:52;;;;;;;0.50;0.50;;;;;;;;;;10471795;28;20046;-74
2024/03/16 09:33:56;;;;;;;1.50;0.95;;;;;;;;;;10473549;28;20059;-75
2024/03/16 09:38:59;;;;;;;1.20;1.10;;;;;;;;;;10486540;28;20491;-74
2024/03/16 09:44:03;;;;;;;2.85;1.45;;;;;;;;;;10481768;28;20047;-75
2024/03/16 09:49:08;;;;;;;2.78;2.13;;;;;;;;;;10465533;28;20386;-75
2024/03/16 09:54:11;;;;;;;2.92;2.03;;;;;;;;;;10466953;28;20963;-75
2024/03/16 09:59:14;;;;;;;2.42;1.92;;;;;;;;;;10481703;28;20043;-74
2024/03/16 10:04:17;;;;;;;4.07;2.67;;;;;;;;;;10468752;28;20052;-75
2024/03/16 10:09:23;;;;;;;4.70;2.67;;;;;;;;;;10471411;28;20097;-74
2024/03/16 10:14:25;;;;;;;2.15;1.55;;;;;;;;;;10467003;28;20028;-74
2024/03/16 10:19:28;;;;;;;2.92;1.65;;;;;;;;;;10499430;28;20047;-74
2024/03/16 10:24:31;;;;;;;2.30;1.52;;;;;;;;;;10499202;28;20032;-74
2024/03/16 10:29:34;;;;;;;1.65;1.52;;;;;;;;;;10490223;28;20089;-74
2024/03/16 10:34:37;;;;;;;3.15;1.58;;;;;;;;;;10481279;28;21802;-75
2024/03/16 10:39:40;;;;;;;2.42;1.40;;;;;;;;;;10471837;28;20128;-72
2024/03/16 10:44:46;;;;;;;2.17;1.70;;;;;;;;;;10428619;28;20518;-72
2024/03/16 10:49:49;;;;;;;;;;;;;;;;;;10425865;28;20036;-72
2024/03/16 10:54:51;;;;;;;3.60;1.98;;;;;;;;;;10483780;28;19920;-72
2024/03/16 10:59:54;;;;;;;4.35;2.28;;;;;;;;;;10463868;28;20089;-72
2024/03/16 11:04:57;;;;;;;3.75;2.10;;;;;;;;;;10472380;28;20044;-72
2024/03/16 11:10:00;;;;;;;1.90;1.50;;;;;;;;;;10457519;28;20043;-71
2024/03/16 11:15:33;;;;;;;2.90;1.30;;;;;;;;;;10476456;28;20113;-72
2024/03/16 11:20:40;;;;;;;2.35;1.40;;;;;;;;;;10433082;22;20108;-72
2024/03/16 11:25:42;;;;;;;3.03;1.67;;;;;;;;;;10345015;28;20061;-72
2024/03/16 11:30:46;;;;;;;3.22;1.58;;;;;;;;;;10303264;28;20042;-73
2024/03/16 11:35:49;;;;;;;3.28;1.80;;;;;;;;;;10321760;28;20057;-72
2024/03/16 11:40:52;;;;;;;3.20;1.67;;;;;;;;;;10329565;28;20057;-73
2024/03/16 11:45:54;;;;;;;1.90;1.30;;;;;;;;;;10328047;28;20054;-73
2024/03/16 11:50:57;;;;;;;3.97;1.95;;;;;;;;;;10336284;28;20050;-72
2024/03/16 11:56:00;;;;;;;2.75;1.60;;;;;;;;;;10343393;28;20050;-72
2024/03/16 12:01:02;;;;;;;2.47;1.70;;;;;;;;;;10324625;28;20388;-72
2024/03/16 12:06:05;;;;;;;3.78;1.98;;;;;;;;;;10320068;28;20050;-73
2024/03/16 12:11:08;;;;;;;3.72;2.10;;;;;;;;;;10337034;28;20430;-72
2024/03/16 12:16:11;;;;;;;2.75;1.58;;;;;;;;;;10310316;28;20050;-72
2024/03/16 12:21:13;;;;;;;2.58;1.40;;;;;;;;;;10341479;28;20042;-72
2024/03/16 12:26:15;;;;;;;2.08;1.30;;;;;;;;;;10320730;28;20038;-73
2024/03/16 12:31:19;;;;;;;3.17;1.80;;;;;;;;;;10339692;28;20045;-72
2024/03/16 12:36:22;;;;;;;2.63;1.33;;;;;;;;;;10333272;28;20094;-73
2024/03/16 12:41:24;;;;;;;2.78;1.30;;;;;;;;;;10309774;28;20038;-73
2024/03/16 12:46:27;;;;;;;2.85;1.40;;;;;;;;;;10322975;28;20046;-73
2024/03/16 12:51:32;;;;;;;3.97;1.70;;;;;;;;;;10325112;28;20114;-73
2024/03/16 12:56:37;;;;;;;2.45;1.40;;;;;;;;;;10316752;28;20053;-73
2024/03/16 13:01:39;;;;;;;3.55;1.50;;;;;;;;;;10317747;28;20052;-73
2024/03/16 13:06:42;;;;;;;2.83;1.70;;;;;;;;;;10316323;28;20053;-73
2024/03/16 13:11:46;;;;;;;2.83;1.38;;;;;;;;;;10324799;28;20054;-73
2024/03/16 13:16:48;;;;;;;1.17;0.88;;;;;;;;;;10306198;28;20096;-73
2024/03/16 13:21:51;;;;;;;1.75;1.08;;;;;;;;;;10325120;28;20049;-73
2024/03/16 13:26:53;;;;;;;2.10;1.30;;;;;;;;;;10330695;28;20029;-73
2024/03/16 13:31:55;;;;;;;1.05;0.90;;;;;;;;;;10331053;28;20045;-72
2024/03/16 13:36:59;;;;;;;2.33;1.33;;;;;;;;;;10307153;28;20042;-73
2024/03/16 13:42:02;;;;;;;2.70;1.30;;;;;;;;;;10337576;28;20038;-72
2024/03/16 13:47:05;;;;;;;4.78;1.88;;;;;;;;;;10336135;28;20038;-72
2024/03/16 13:52:08;;;;;;;2.47;1.60;;;;;;;;;;10324987;28;20068;-72
2024/03/16 13:57:10;;;;;;;1.80;1.15;;;;;;;;;;10304690;28;20130;-72
2024/03/16 14:02:14;;;;;;;4.18;1.48;;;;;;;;;;10315489;28;20046;-72
2024/03/16 14:07:16;;;;;;;2.33;0.95;;;;;;;;;;10321185;28;20060;-72
2024/03/16 14:12:19;;;;;;;1.30;1.20;;;;;;;;;;10340869;28;20322;-73
2024/03/16 14:17:22;;;;;;;2.75;1.10;;;;;;;;;;10364816;28;20509;-72
2024/03/16 14:22:25;;;;;;;2.20;1.00;;;;;;;;;;10427009;28;20048;-73
2024/03/16 14:27:28;;;;;;;0.88;0.88;;;;;;;;;;10425537;28;20414;-72
2024/03/16 14:32:30;;;;;;;1.77;1.10;;;;;;;;;;10417325;28;20045;-72
2024/03/16 14:37:33;;;;;;;0.85;0.73;;;;;;;;;;10424014;28;20422;-72
2024/03/16 14:42:35;;;;;;;1.73;1.10;;;;;;;;;;10423913;28;20087;-73
2024/03/16 14:47:38;;;;;;;1.48;1.15;;;;;;;;;;10405401;28;20402;-73
2024/03/16 14:52:40;;;;;;;2.05;0.88;;;;;;;;;;10421679;28;20059;-72
2024/03/16 14:57:43;;;;;;;1.95;0.70;;;;;;;;;;10415770;28;20577;-72
2024/03/16 15:02:46;;;;;;;1.58;0.90;;;;;;;;;;10414507;28;20041;-73
2024/03/16 15:07:48;;;;;;;2.60;0.90;;;;;;;;;;10401644;28;20045;-73
2024/03/16 15:12:51;;;;;;;1.65;0.70;;;;;;;;;;10420471;28;20040;-73
2024/03/16 15:17:53;;;;;;;1.65;1.10;;;;;;;;;;10393690;28;20037;-72
2024/03/16 15:22:55;;;;;;;1.58;0.65;;;;;;;;;;10425683;28;20055;-72
2024/03/16 15:28:08;;;;;;;2.47;1.02;;;;;;;;;;10399117;28;20033;-73
2024/03/16 15:33:11;;;;;;;2.25;1.15;;;;;;;;;;10380052;28;20127;-72
2024/03/16 15:38:13;;;;;;;4.95;1.35;;;;;;;;;;10399635;28;20699;-72
2024/03/16 15:43:16;;;;;;;1.63;1.25;;;;;;;;;;10395244;28;20041;-73
2024/03/16 15:48:19;;;;;;;1.77;1.17;;;;;;;;;;10383830;28;20045;-73
2024/03/16 15:53:23;;;;;;;1.67;1.02;;;;;;;;;;10389828;28;20037;-72
2024/03/16 15:58:26;;;;;;;0.88;0.88;;;;;;;;;;10391091;28;20033;-73
2024/03/16 16:03:29;;;;;;;3.92;1.30;;;;;;;;;;10376680;28;20049;-73
2024/03/16 16:08:32;;;;;;;4.90;1.38;;;;;;;;;;10397361;28;20052;-73
2024/03/16 16:13:34;;;;;;;1.77;1.10;;;;;;;;;;10407023;28;20040;-73
2024/03/16 16:18:40;;;;;;;1.42;1.10;;;;;;;;;;10411038;28;20034;-72
2024/03/16 16:23:43;;;;;;;2.10;1.67;;;;;;;;;;10414495;28;20053;-72
2024/03/16 16:28:45;;;;;;;3.55;2.00;;;;;;;;;;10411714;28;20041;-73
2024/03/16 16:33:48;;;;;;;3.40;1.40;;;;;;;;;;10395644;28;20072;-73
2024/03/16 16:38:50;;;;;;;2.40;1.38;;;;;;;;;;10424375;28;20114;-73
2024/03/16 16:43:53;;;;;;;4.13;1.55;;;;;;;;;;10426647;28;20045;-72
2024/03/16 16:48:58;;;;;;;1.90;1.40;;;;;;;;;;10395564;28;20659;-72
2024/03/16 16:54:03;;;;;;;2.05;1.30;;;;;;;;;;10407522;28;20087;-73
2024/03/16 16:59:06;;;;;;;1.63;0.93;;;;;;;;;;10424335;28;20050;-73
2024/03/16 17:04:08;;;;;;;2.47;1.05;;;;;;;;;;10394250;28;20398;-72
2024/03/16 17:09:11;;;;;;;1.52;0.82;;;;;;;;;;10425564;28;20601;-73
2024/03/16 17:14:13;;;;;;;1.20;0.82;;;;;;;;;;10422912;28;20039;-72
2024/03/16 17:19:16;;;;;;;2.05;0.80;;;;;;;;;;10439197;23;20049;-72
2024/03/16 17:24:18;;;;;;;1.10;0.82;;;;;;;;;;10410990;28;20045;-72
2024/03/16 17:29:21;;;;;;;1.13;0.82;;;;;;;;;;10405283;28;20037;-72
2024/03/16 17:34:23;;;;;;;1.70;1.00;;;;;;;;;;10403159;28;20036;-72
2024/03/16 17:39:26;;;;;;;0.93;0.65;;;;;;;;;;10397993;28;20033;-72
2024/03/16 17:44:28;;;;;;;1.45;0.80;;;;;;;;;;10401165;28;20041;-73
2024/03/16 17:49:31;;;;;;;1.73;1.00;;;;;;;;;;10385970;28;20052;-72
2024/03/16 17:54:34;;;;;;;1.52;0.90;;;;;;;;;;10424762;28;20044;-72
2024/03/16 17:59:37;;;;;;;2.05;1.15;;;;;;;;;;10393316;28;20060;-72
2024/03/16 18:04:40;;;;;;;1.35;1.00;;;;;;;;;;10387766;28;20367;-72
2024/03/16 18:09:43;;;;;;;1.02;0.93;;;;;;;;;;10400534;28;20049;-72
2024/03/16 18:14:45;;;;;;;1.70;1.30;;;;;;;;;;10378516;28;20042;-72
2024/03/16 18:19:48;;;;;;;1.83;1.10;;;;;;;;;;10409169;28;20063;-72
2024/03/16 18:24:54;;;;;;;3.25;1.60;;;;;;;;;;10401796;28;20033;-72
2024/03/16 18:29:56;;;;;;;2.13;1.40;;;;;;;;;;10412615;28;20052;-72
2024/03/16 18:34:59;;;;;;;3.22;1.63;;;;;;;;;;10413458;28;20028;-72
2024/03/16 18:40:05;;;;;;;3.55;2.20;;;;;;;;;;10412127;28;20079;-72
2024/03/16 18:45:08;;;;;;;2.42;1.52;;;;;;;;;;10419574;28;20394;-73
2024/03/16 18:50:11;;;;;;;1.75;1.38;;;;;;;;;;10412646;28;20033;-73
2024/03/16 18:55:15;;;;;;;1.52;0.80;;;;;;;;;;10415182;28;20045;-72
2024/03/16 19:00:22;;;;;;;0.93;0.75;;;;;;;;;;10400889;28;20089;-72
2024/03/16 19:05:25;;;;;;;1.25;0.90;;;;;;;;;;10403409;28;20048;-73
2024/03/16 19:10:28;;;;;;;1.42;1.00;;;;;;;;;;10398641;28;20548;-72
2024/03/16 19:15:31;;;;;;;1.20;1.10;;;;;;;;;;10401337;28;20040;-73
2024/03/16 19:20:33;;;;;;;3.15;1.83;;;;;;;;;;10404763;28;20040;-73
2024/03/16 19:25:37;;;;;;;3.15;1.95;;;;;;;;;;10399300;28;20040;-72
2024/03/16 19:30:41;;;;;;;3.70;2.30;;;;;;;;;;10386996;28;20640;-72
2024/03/16 19:35:43;;;;;;;2.13;1.88;;;;;;;;;;10410666;28;20386;-73
2024/03/16 19:40:47;;;;;;;3.03;2.08;;;;;;;;;;10407854;28;20076;-73
2024/03/16 19:45:49;;;;;;;2.35;1.48;;;;;;;;;;10403325;28;20079;-72
2024/03/16 19:50:52;;;;;;;2.67;1.60;;;;;;;;;;10407060;28;20053;-72
2024/03/16 19:55:56;;;;;;;1.98;1.13;;;;;;;;;;10400825;28;20102;-73
2024/03/16 20:00:58;;;;;;;1.75;1.45;;;;;;;;;;10402602;28;20051;-73
2024/03/16 20:06:00;;;;;;;3.70;1.77;;;;;;;;;;10420518;28;20045;-72
2024/03/16 20:11:04;;;;;;;2.95;1.58;;;;;;;;;;10418838;28;20429;-73
2024/03/16 20:16:08;;;;;;;3.75;2.00;;;;;;;;;;10421641;28;20029;-73
2024/03/16 20:21:11;;;;;;;5.72;2.65;;;;;;;;;;10426061;28;20048;-72
2024/03/16 20:26:15;;;;;;;5.82;3.00;;;;;;;;;;10414396;28;20041;-72
2024/03/16 20:31:17;;;;;;;7.78;3.45;;;;;;;;;;10417116;28;20048;-72
2024/03/16 20:36:19;;;;;;;7.80;3.55;;;;;;;;;;10412753;28;20693;-72
2024/03/16 20:41:24;;;;;;;6.13;4.00;;;;;;;;;;10415431;28;20051;-72
2024/03/16 20:46:26;;;;;;;6.25;3.38;;;;;;;;;;10403246;28;20542;-72
2024/03/16 20:51:29;;;;;;;6.28;3.80;;;;;;;;;;10407958;28;20041;-72
2024/03/16 20:56:33;;;;;;;4.70;2.90;;;;;;;;;;10403605;28;20044;-72
2024/03/16 21:01:36;;;;;;;4.22;2.97;;;;;;;;;;10394433;28;20041;-73
2024/03/16 21:06:38;;;;;;;2.92;2.40;;;;;;;;;;10402153;28;20124;-73
2024/03/16 21:11:42;;;;;;;5.03;3.30;;;;;;;;;;10415786;28;20552;-72
2024/03/16 21:16:45;;;;;;;6.15;2.75;;;;;;;;;;10405811;28;20502;-72
2024/03/16 21:21:47;;;;;;;3.90;2.63;;;;;;;;;;10411959;28;20053;-73
2024/03/16 21:26:51;;;;;;;4.95;2.38;;;;;;;;;;10394812;28;20060;-73
2024/03/16 21:31:53;;;;;;;2.58;2.15;;;;;;;;;;10398811;28;20056;-72
2024/03/16 21:36:56;;;;;;;2.15;1.90;;;;;;;;;;10386856;28;20056;-72
2024/03/16 21:41:59;;;;;;;2.97;2.00;;;;;;;;;;10400044;28;20054;-72
2024/03/16 21:47:02;;;;;;;3.55;2.30;;;;;;;;;;10405030;28;20053;-72
2024/03/16 21:52:04;;;;;;;2.70;1.88;;;;;;;;;;10414701;28;20127;-72
2024/03/16 21:57:08;;;;;;;3.03;1.88;;;;;;;;;;10411048;28;20469;-72
2024/03/16 22:02:13;;;;;;;3.97;2.10;;;;;;;;;;10403721;28;20037;-72
2024/03/16 22:07:16;;;;;;;6.05;2.90;;;;;;;;;;10411560;28;20052;-72
2024/03/16 22:12:20;;;;;;;7.72;3.25;;;;;;;;;;10415069;28;20055;-72
2024/03/16 22:17:24;;;;;;;6.80;3.17;;;;;;;;;;10407090;28;20793;-73
2024/03/16 22:22:26;;;;;;;8.30;3.22;;;;;;;;;;10406240;28;20581;-72
2024/03/16 22:27:30;;;;;;;5.88;3.05;;;;;;;;;;10399694;28;20058;-73
2024/03/16 22:32:33;;;;;;;4.28;2.60;;;;;;;;;;10402678;28;20041;-73
2024/03/16 22:37:35;;;;;;;5.25;2.92;;;;;;;;;;10407883;28;20494;-73
2024/03/16 22:42:39;;;;;;;2.88;2.22;;;;;;;;;;10395700;28;20881;-72
2024/03/16 22:47:42;;;;;;;3.85;2.38;;;;;;;;;;10388873;28;20706;-73
2024/03/16 22:52:45;;;;;;;3.60;2.30;;;;;;;;;;10407130;28;20040;-72
2024/03/16 22:57:48;;;;;;;3.40;2.38;;;;;;;;;;10380564;28;20106;-72
2024/03/16 23:02:51;;;;;;;3.55;1.85;;;;;;;;;;10401323;28;20450;-72
2024/03/16 23:07:56;;;;;;;2.53;1.67;;;;;;;;;;10407661;28;20048;-73
2024/03/16 23:13:00;;;;;;;3.45;2.08;;;;;;;;;;10418536;28;20041;-73
2024/03/16 23:18:02;;;;;;;6.05;2.80;;;;;;;;;;10412179;28;20051;-76
2024/03/16 23:23:05;;;;;;;2.92;2.00;;;;;;;;;;10412827;28;20040;-72
2024/03/16 23:28:09;;;;;;;2.83;2.22;;;;;;;;;;10425280;28;20677;-72
2024/03/16 23:33:12;;;;;;;2.55;1.88;;;;;;;;;;10414271;28;20391;-73
2024/03/16 23:38:14;;;;;;;3.25;1.90;;;;;;;;;;10418279;28;20053;-73
2024/03/16 23:43:18;;;;;;;3.53;1.77;;;;;;;;;;10415040;28;20033;-72
2024/03/16 23:48:21;;;;;;;3.15;1.80;;;;;;;;;;10405688;28;20033;-72
2024/03/16 23:53:23;;;;;;;2.15;1.60;;;;;;;;;;10412211;28;20048;-73
2024/03/16 23:58:27;;;;;;;2.88;1.67;;;;;;;;;;10417001;28;20052;-72
